Time;durP1;ratioP1;P1;durP2;ratioP2;P2;SDS_P1;SDS_P2;PMS_P1;PMS_P2;Temp;Humidity;BMP_temperature;BMP_pressure;BME280_temperature;BME280_humidity;BME280_pressure;Samples;Min_cycle;Max_cycle;Signal;HPM_P1;HPM_P2
2023/11/12 00:03:49;;;;;;;75.53;35.83;;;;;;;6.43;100.00;99529.33;5054062;55;1140871;-70
2023/11/12 00:08:55;;;;;;;60.60;31.37;;;;;;;6.42;100.00;99528.13;5182347;56;1150440;-70
2023/11/12 00:14:01;;;;;;;56.03;29.47;;;;;;;6.38;100.00;99536.75;5204274;56;1141151;-72
2023/11/12 00:19:06;;;;;;;64.33;30.73;;;;;;;6.33;100.00;99534.94;5183933;56;1140947;-73
2023/11/12 00:24:12;;;;;;;54.67;28.90;;;;;;;6.31;100.00;99535.52;5183781;56;1140824;-71
2023/11/12 00:29:17;;;;;;;64.07;29.73;;;;;;;6.31;100.00;99536.84;5182817;55;1141051;-74
2023/11/12 00:34:23;;;;;;;54.93;28.30;;;;;;;6.31;100.00;99538.98;5204109;56;1141045;-75
2023/11/12 00:39:29;;;;;;;49.70;25.37;;;;;;;6.32;100.00;99549.85;5183702;56;1140952;-74
2023/11/12 00:44:35;;;;;;;56.40;29.07;;;;;;;6.34;100.00;99544.48;5183999;56;1141008;-71
2023/11/12 00:49:41;;;;;;;57.60;28.93;;;;;;;6.35;100.00;99542.22;5204913;55;1141014;-73
2023/11/12 00:54:47;;;;;;;47.30;25.27;;;;;;;6.34;100.00;99547.95;5184221;55;1138953;-71
2023/11/12 00:59:52;;;;;;;50.60;25.80;;;;;;;6.33;100.00;99546.75;5184654;55;1138829;-73
2023/11/12 01:04:58;;;;;;;39.95;23.20;;;;;;;6.32;100.00;99540.66;5160803;56;1140795;-73
2023/11/12 01:10:04;;;;;;;47.30;26.60;;;;;;;6.28;100.00;99541.00;5024663;55;1141040;-69
2023/11/12 01:15:12;;;;;;;48.50;24.93;;;;;;;6.26;100.00;99552.92;4962875;56;1141018;-74
2023/11/12 01:20:18;;;;;;;44.80;23.30;;;;;;;6.26;100.00;99546.88;4962980;56;1140939;-74
2023/11/12 01:25:23;;;;;;;38.00;23.03;;;;;;;6.29;100.00;99554.49;4981845;56;1140646;-70
2023/11/12 01:30:29;;;;;;;41.13;23.43;;;;;;;6.30;100.00;99546.50;4966173;56;1140717;-70
2023/11/12 01:35:35;;;;;;;39.85;21.73;;;;;;;6.35;100.00;99548.31;4972345;56;1140906;-71
2023/11/12 01:40:42;;;;;;;43.83;22.47;;;;;;;6.37;100.00;99543.42;4990508;56;1141124;-68
2023/11/12 01:45:48;;;;;;;45.07;23.30;;;;;;;6.45;100.00;99546.30;4971652;57;1140573;-75
2023/11/12 01:50:54;;;;;;;46.48;23.67;;;;;;;6.54;100.00;99543.82;4971676;57;1140835;-76
2023/11/12 01:56:00;;;;;;;45.08;23.77;;;;;;;6.63;100.00;99548.36;4991242;57;1141067;-72
2023/11/12 02:01:06;;;;;;;39.92;21.75;;;;;;;6.59;100.00;99543.45;4970237;57;1140936;-76
2023/11/12 02:06:12;;;;;;;42.50;22.73;;;;;;;6.51;100.00;99549.30;5022162;56;1138796;-76
2023/11/12 02:11:19;;;;;;;42.90;22.73;;;;;;;6.43;100.00;99543.78;4966535;57;1141098;-75
2023/11/12 02:16:27;;;;;;;36.83;21.10;;;;;;;6.39;100.00;99537.11;4988981;57;1141123;-73
2023/11/12 02:21:32;;;;;;;40.23;23.03;;;;;;;6.39;100.00;99537.11;4923010;57;1140730;-74
2023/11/12 02:26:38;;;;;;;39.83;21.80;;;;;;;6.43;100.00;99537.21;4891086;57;1140747;-74
2023/11/12 02:31:44;;;;;;;43.27;20.20;;;;;;;6.46;100.00;99538.77;4945795;57;1141060;-73
2023/11/12 02:36:50;;;;;;;33.75;19.37;;;;;;;6.46;100.00;99547.49;5026983;57;1140579;-72
2023/11/12 02:41:59;;;;;;;32.50;18.40;;;;;;;6.43;100.00;99555.59;5124320;55;1140671;-76
2023/11/12 02:47:04;;;;;;;30.07;18.03;;;;;;;6.38;100.00;99553.81;5162436;55;1140510;-71
2023/11/12 02:52:10;;;;;;;32.23;18.33;;;;;;;6.35;100.00;99554.88;5142100;55;1141016;-69
2023/11/12 02:57:15;;;;;;;32.53;19.10;;;;;;;6.31;100.00;99541.61;5126062;55;1140548;-72
2023/11/12 03:02:22;;;;;;;34.93;18.23;;;;;;;6.27;100.00;99548.04;5094227;56;1141043;-74
2023/11/12 03:07:30;;;;;;;26.77;15.53;;;;;;;6.21;100.00;99547.20;5063696;56;1140788;-74
2023/11/12 03:12:39;;;;;;;37.00;17.80;;;;;;;6.22;100.00;99555.45;5001625;57;1140765;-73
2023/11/12 03:17:45;;;;;;;29.03;15.37;;;;;;;6.25;100.00;99556.53;5036071;56;1140884;-72
2023/11/12 03:22:51;;;;;;;28.13;15.53;;;;;;;6.30;100.00;99559.63;4913678;57;1141165;-75
2023/11/12 03:27:56;;;;;;;24.23;14.25;;;;;;;6.29;100.00;99562.38;4965102;56;1140928;-70
2023/11/12 03:33:02;;;;;;;27.87;15.17;;;;;;;6.27;100.00;99566.89;5012062;56;1140943;-72
2023/11/12 03:38:07;;;;;;;25.60;15.48;;;;;;;6.28;100.00;99573.34;4969247;57;1140847;-70
2023/11/12 03:43:13;;;;;;;30.43;17.73;;;;;;;6.29;100.00;99570.25;5052288;56;1140892;-73
2023/11/12 03:48:18;;;;;;;36.97;19.27;;;;;;;6.30;100.00;99571.92;5035709;56;1140703;-71
2023/11/12 03:53:24;;;;;;;27.20;15.73;;;;;;;6.26;100.00;99563.43;5009869;56;1140881;-73
2023/11/12 03:58:30;;;;;;;25.33;15.67;;;;;;;6.24;100.00;99564.05;5019613;56;1140941;-73
2023/11/12 04:03:36;;;;;;;25.43;16.40;;;;;;;6.23;100.00;99568.94;4967614;56;1141001;-74
2023/11/12 04:08:42;;;;;;;25.10;15.67;;;;;;;6.24;100.00;99569.77;5033645;56;1140869;-74
2023/11/12 04:13:47;;;;;;;22.70;15.30;;;;;;;6.25;100.00;99574.91;5072343;56;1140945;-70
2023/11/12 04:18:53;;;;;;;30.43;16.80;;;;;;;6.22;100.00;99573.83;5052166;56;1146583;-74
2023/11/12 04:24:00;;;;;;;26.10;16.40;;;;;;;6.19;100.00;99574.05;5052772;56;1140762;-71
2023/11/12 04:29:07;;;;;;;30.65;17.02;;;;;;;6.17;100.00;99574.63;5072312;56;1140842;-72
2023/11/12 04:34:12;;;;;;;32.40;17.47;;;;;;;6.16;100.00;99576.89;4970704;57;1140950;-71
2023/11/12 04:39:19;;;;;;;23.67;15.27;;;;;;;6.20;100.00;99580.14;5092962;56;1140804;-68
2023/11/12 04:44:25;;;;;;;28.87;14.53;;;;;;;6.22;100.00;99586.11;5098062;56;1141113;-70
2023/11/12 04:49:30;;;;;;;26.60;17.27;;;;;;;6.22;100.00;99591.36;5118051;56;1140794;-74
2023/11/12 04:54:36;;;;;;;27.63;16.17;;;;;;;6.21;100.00;99585.28;5097301;56;1141006;-75
2023/11/12 04:59:42;;;;;;;24.33;14.70;;;;;;;6.19;100.00;99594.21;5097499;57;1140967;-71
2023/11/12 05:04:47;;;;;;;21.60;15.30;;;;;;;6.16;100.00;99587.87;5124742;55;1141114;-72
2023/11/12 05:09:53;;;;;;;20.20;14.43;;;;;;;6.14;100.00;99587.14;5131346;55;1140939;-72
2023/11/12 05:14:58;;;;;;;25.25;15.08;;;;;;;6.15;100.00;99588.82;5130830;55;1140720;-74
2023/11/12 05:20:05;;;;;;;24.60;14.00;;;;;;;6.16;100.00;99595.27;5150815;55;1140791;-73
2023/11/12 05:25:13;;;;;;;23.40;14.53;;;;;;;6.20;100.00;99602.45;5131424;55;1140718;-71
2023/11/12 05:30:18;;;;;;;20.63;14.67;;;;;;;6.17;100.00;99605.30;5048330;56;1141060;-72
2023/11/12 05:35:24;;;;;;;29.07;15.57;;;;;;;6.16;100.00;99603.63;5048146;56;1140971;-74
2023/11/12 05:40:29;;;;;;;23.30;15.00;;;;;;;6.13;100.00;99609.09;5067578;56;1140840;-72
2023/11/12 05:45:35;;;;;;;28.30;16.37;;;;;;;6.12;100.00;99606.11;5057330;55;1140689;-73
2023/11/12 05:50:40;;;;;;;21.43;13.67;;;;;;;6.12;100.00;99616.12;5046462;56;1140933;-72
2023/11/12 05:55:46;;;;;;;22.67;14.47;;;;;;;6.14;100.00;99612.08;5114873;57;1140917;-76
2023/11/12 06:00:54;;;;;;;21.43;13.73;;;;;;;6.14;100.00;99623.42;5093645;57;1140592;-71
2023/11/12 06:05:58;;;;;;;21.45;13.35;;;;;;;6.16;100.00;99620.69;5114073;55;1140594;-73
2023/11/12 06:11:05;;;;;;;20.25;13.90;;;;;;;6.17;100.00;99627.61;5136864;55;1140834;-71
2023/11/12 06:16:10;;;;;;;16.23;11.55;;;;;;;6.17;100.00;99627.61;4961734;57;1140777;-73
2023/11/12 06:21:16;;;;;;;22.57;13.27;;;;;;;6.17;100.00;99627.61;5019618;57;1141103;-72
2023/11/12 06:26:22;;;;;;;18.20;12.23;;;;;;;6.18;100.00;99620.10;4890509;58;1140981;-70
2023/11/12 06:31:27;;;;;;;22.07;13.30;;;;;;;6.19;100.00;99627.03;5039576;57;1140581;-69
2023/11/12 06:36:33;;;;;;;25.77;16.80;;;;;;;6.17;100.00;99634.17;4959687;58;1141213;-71
2023/11/12 06:41:38;;;;;;;22.40;13.53;;;;;;;6.16;100.00;99637.28;4938808;58;1140800;-76
2023/11/12 06:46:47;;;;;;;21.33;13.83;;;;;;;6.19;100.00;99652.81;5030924;57;1140915;-74
2023/11/12 06:51:52;;;;;;;24.07;16.30;;;;;;;6.23;100.00;99653.43;5020303;56;1141041;-76
2023/11/12 06:56:59;;;;;;;20.87;14.20;;;;;;;6.25;100.00;99652.38;5047851;56;1141092;-75
2023/11/12 07:02:04;;;;;;;26.37;14.15;;;;;;;6.28;100.00;99657.84;5067980;56;1141058;-73
2023/11/12 07:07:12;;;;;;;18.23;12.73;;;;;;;6.28;100.00;99661.79;4981819;57;1140895;-71
2023/11/12 07:12:17;;;;;;;26.00;15.00;;;;;;;6.26;100.00;99661.89;4908621;58;1141079;-71
2023/11/12 07:17:23;;;;;;;24.53;14.57;;;;;;;6.25;100.00;99662.04;4854894;58;1140799;-73
2023/11/12 07:22:28;;;;;;;34.63;17.97;;;;;;;6.29;100.00;99672.18;4941790;58;1140845;-71
2023/11/12 07:27:34;;;;;;;28.83;18.03;;;;;;;6.35;100.00;99675.68;4846800;57;1141063;-70
2023/11/12 07:32:39;;;;;;;33.00;19.23;;;;;;;6.36;100.00;99677.83;4968835;57;1140801;-71
2023/11/12 07:37:45;;;;;;;23.17;15.73;;;;;;;6.34;100.00;99680.57;4963150;58;1140955;-72
2023/11/12 07:42:50;;;;;;;27.93;16.33;;;;;;;6.37;100.00;99689.18;5041221;55;1140658;-76
2023/11/12 07:47:56;;;;;;;23.60;14.60;;;;;;;6.38;100.00;99693.48;5108104;56;1140797;-74
2023/11/12 07:53:03;;;;;;;17.32;13.35;;;;;;;6.41;100.00;99692.79;5147790;56;1140854;-70
2023/11/12 07:58:08;;;;;;;19.40;13.83;;;;;;;6.42;100.00;99694.91;5126860;55;1140739;-74
2023/11/12 08:03:14;;;;;;;21.30;14.50;;;;;;;6.45;100.00;99692.06;5148008;55;1141035;-71
2023/11/12 08:08:20;;;;;;;18.97;13.63;;;;;;;6.50;100.00;99692.58;5131069;55;1141337;-71
2023/11/12 08:13:25;;;;;;;23.03;13.17;;;;;;;6.58;100.00;99704.17;5067548;56;1140854;-73
2023/11/12 08:18:32;;;;;;;14.83;11.65;;;;;;;6.58;100.00;99704.17;5122924;55;1140620;-70
2023/11/12 08:23:38;;;;;;;19.73;13.90;;;;;;;6.60;100.00;99708.00;5106436;55;1141015;-75
2023/11/12 08:28:43;;;;;;;18.20;12.17;;;;;;;6.61;100.00;99707.05;5142489;56;1141096;-70
2023/11/12 08:33:49;;;;;;;15.40;12.63;;;;;;;6.61;100.00;99718.41;5126646;56;1140812;-68
2023/11/12 08:38:54;;;;;;;19.13;12.80;;;;;;;6.61;100.00;99713.63;4997256;56;1140916;-73
2023/11/12 08:44:00;;;;;;;14.07;10.03;;;;;;;6.66;100.00;99716.76;5147102;55;1140901;-69
2023/11/12 08:49:06;;;;;;;12.33;10.28;;;;;;;6.78;100.00;99725.52;5135245;55;1140907;-71
2023/11/12 08:54:12;;;;;;;14.57;9.57;;;;;;;6.84;100.00;99732.48;5133939;55;1140758;-73
2023/11/12 08:59:18;;;;;;;19.13;10.90;;;;;;;6.90;100.00;99735.94;5113972;56;1138660;-73
2023/11/12 09:04:23;;;;;;;13.73;10.33;;;;;;;6.91;100.00;99734.99;5126539;55;1140624;-75
2023/11/12 09:09:29;;;;;;;14.73;10.43;;;;;;;6.93;100.00;99744.92;5100347;56;1140955;-73
2023/11/12 09:14:35;;;;;;;18.20;11.20;;;;;;;6.91;100.00;99748.61;5118489;56;1141062;-71
2023/11/12 09:19:45;;;;;;;11.40;9.53;;;;;;;6.94;100.00;99750.54;5102935;56;1141087;-71
2023/11/12 09:24:50;;;;;;;12.75;9.40;;;;;;;6.96;100.00;99752.58;5103231;56;1138953;-69
2023/11/12 09:29:57;;;;;;;14.62;9.74;;;;;;;7.00;100.00;99749.26;5165519;55;1138892;-72
2023/11/12 09:35:05;;;;;;;15.15;9.83;;;;;;;7.02;100.00;99742.09;5167300;55;1138789;-72
2023/11/12 09:40:13;;;;;;;13.72;9.68;;;;;;;7.09;100.00;99750.34;5134343;55;1138650;-73
2023/11/12 09:45:21;;;;;;;18.74;10.60;;;;;;;7.15;100.00;99751.20;5143266;56;1148372;-69
2023/11/12 09:50:27;;;;;;;16.47;10.07;;;;;;;7.23;100.00;99751.45;5115171;55;1140803;-71
2023/11/12 09:55:35;;;;;;;16.90;10.57;;;;;;;7.20;100.00;99750.36;5116759;56;1140747;-70
2023/11/12 10:00:43;;;;;;;14.20;9.53;;;;;;;7.25;100.00;99754.80;5096450;56;1140725;-72
2023/11/12 10:05:48;;;;;;;8.07;7.00;;;;;;;7.36;100.00;99752.19;5115973;57;1138929;-71
2023/11/12 10:10:54;;;;;;;9.10;7.67;;;;;;;7.48;100.00;99755.22;5054165;55;1136487;-70
2023/11/12 10:16:00;;;;;;;10.90;7.53;;;;;;;7.62;100.00;99748.41;5044113;56;1136610;-72
2023/11/12 10:21:08;;;;;;;10.93;7.47;;;;;;;7.74;100.00;99756.66;5064144;56;1138912;-75
2023/11/12 10:26:15;;;;;;;12.60;8.68;;;;;;;7.80;100.00;99750.53;5055304;56;1138784;-74
2023/11/12 10:31:37;;;;;;;8.08;6.08;;;;;;;7.86;100.00;99751.38;5094441;56;1138933;-74
2023/11/12 10:36:54;;;;;;;8.67;5.73;;;;;;;7.89;100.00;99747.20;5060831;56;1136645;-73
2023/11/12 10:42:00;;;;;;;6.57;5.97;;;;;;;7.97;100.00;99744.78;5052768;57;1157094;-69
2023/11/12 10:47:09;;;;;;;8.03;6.62;;;;;;;7.95;100.00;99736.16;5053757;57;1136669;-72
2023/11/12 10:52:16;;;;;;;13.10;6.90;;;;;;;7.98;100.00;99733.30;5052999;57;1136668;-71
2023/11/12 10:57:24;;;;;;;10.97;6.60;;;;;;;8.06;100.00;99737.01;5053199;57;1138863;-73
2023/11/12 11:02:32;;;;;;;10.07;7.17;;;;;;;8.19;100.00;99736.02;5073221;57;1138774;-70
2023/11/12 11:07:37;;;;;;;11.43;6.67;;;;;;;8.22;100.00;99741.89;5037378;56;1138767;-71
2023/11/12 11:12:43;;;;;;;6.03;5.40;;;;;;;8.27;100.00;99744.13;5033400;56;1139047;-72
2023/11/12 11:17:49;;;;;;;6.75;5.40;;;;;;;8.27;100.00;99744.97;5057241;56;1136869;-74
2023/11/12 11:22:54;;;;;;;13.20;8.47;;;;;;;8.14;100.00;99749.55;4956037;57;1136436;-73
2023/11/12 11:28:22;;;;;;;7.00;5.83;;;;;;;8.14;100.00;99749.55;5018551;57;1138709;-68
2023/11/12 11:33:27;;;;;;;8.55;5.97;;;;;;;8.21;100.00;99745.48;4887517;58;1136483;-76
2023/11/12 11:38:33;;;;;;;24.53;13.67;;;;;;;8.17;100.00;99739.25;4895240;58;1136611;-74
2023/11/12 11:43:39;;;;;;;18.43;9.60;;;;;;;8.13;100.00;99747.88;4871397;58;1140805;-71
2023/11/12 11:48:49;;;;;;;9.77;7.17;;;;;;;8.08;100.00;99748.74;4880764;59;1138674;-73
2023/11/12 11:53:57;;;;;;;11.30;9.13;;;;;;;8.03;100.00;99750.41;4890629;58;1136628;-71
2023/11/12 11:59:02;;;;;;;12.00;7.93;;;;;;;8.03;100.00;99753.53;4958888;58;1138728;-73
2023/11/12 12:04:09;;;;;;;18.90;10.33;;;;;;;8.09;100.00;99754.37;4986451;57;1138617;-71
2023/11/12 12:09:19;;;;;;;5.80;5.30;;;;;;;8.09;100.00;99750.42;5023084;57;1140819;-73
2023/11/12 12:14:25;;;;;;;7.23;4.40;;;;;;;8.02;100.00;99755.32;4987973;57;1136712;-71
2023/11/12 12:19:30;;;;;;;6.60;3.98;;;;;;;7.89;100.00;99762.52;5102315;56;1136306;-69
2023/11/12 12:24:38;;;;;;;7.77;4.07;;;;;;;7.81;100.00;99758.80;5123511;56;1136502;-73
2023/11/12 12:29:47;;;;;;;4.77;4.20;;;;;;;7.78;100.00;99755.11;5015134;57;1136775;-70
2023/11/12 12:35:00;;;;;;;12.90;8.73;;;;;;;7.73;100.00;99763.35;5030752;57;1136859;-73
2023/11/12 12:40:10;;;;;;;8.03;4.90;;;;;;;7.73;100.00;99764.19;5050080;56;1139001;-74
2023/11/12 12:45:17;;;;;;;5.47;4.60;;;;;;;7.78;100.00;99763.00;5080493;56;1136678;-72
2023/11/12 12:50:28;;;;;;;10.10;5.73;;;;;;;7.80;100.00;99756.63;5072254;56;1136544;-70
2023/11/12 12:55:33;;;;;;;6.17;4.22;;;;;;;7.80;100.00;99756.63;5124594;56;1138770;-72
2023/11/12 13:00:42;;;;;;;4.17;3.60;;;;;;;7.81;100.00;99754.36;5128470;56;1136925;-74
2023/11/12 13:05:49;;;;;;;3.85;3.55;;;;;;;7.80;100.00;99760.59;5119438;56;1136692;-70
2023/11/12 13:10:55;;;;;;;4.43;4.03;;;;;;;7.85;100.00;99766.34;4963523;58;1136609;-70
2023/11/12 13:16:01;;;;;;;15.63;6.43;;;;;;;7.95;100.00;99761.17;5029308;57;1136631;-73
2023/11/12 13:21:06;;;;;;;14.17;5.93;;;;;;;7.94;100.00;99769.58;5039806;57;1139006;-72
2023/11/12 13:26:15;;;;;;;6.47;4.22;;;;;;;7.94;100.00;99764.31;5078739;56;1139020;-73
2023/11/12 13:31:23;;;;;;;4.70;4.10;;;;;;;7.88;100.00;99762.63;5060432;57;1136814;-73
2023/11/12 13:36:29;;;;;;;5.87;4.70;;;;;;;7.89;100.00;99778.79;5065352;57;1136730;-73
2023/11/12 13:41:34;;;;;;;5.10;4.20;;;;;;;7.83;100.00;99780.58;5130421;56;1136509;-71
2023/11/12 13:46:40;;;;;;;4.70;4.23;;;;;;;7.79;100.00;99787.05;5045984;57;1136882;-72
2023/11/12 13:51:46;;;;;;;5.50;3.77;;;;;;;7.65;100.00;99795.52;5065029;56;1136804;-73
2023/11/12 13:56:52;;;;;;;9.63;6.20;;;;;;;7.56;100.00;99809.39;5022483;57;1136633;-72
2023/11/12 14:01:57;;;;;;;6.57;4.37;;;;;;;7.52;100.00;99816.31;5122153;56;1136594;-73
2023/11/12 14:07:04;;;;;;;8.40;5.57;;;;;;;7.51;100.00;99823.84;5056456;57;1136545;-73
2023/11/12 14:12:10;;;;;;;5.43;4.40;;;;;;;7.50;100.00;99822.16;5056443;56;1136851;-72
2023/11/12 14:17:16;;;;;;;5.62;4.55;;;;;;;7.50;100.00;99822.16;5112681;56;1136748;-71
2023/11/12 14:22:21;;;;;;;5.10;4.45;;;;;;;7.47;100.00;99825.89;4932749;57;1136889;-72
2023/11/12 14:27:27;;;;;;;8.73;5.13;;;;;;;7.44;100.00;99820.02;4948198;57;1136746;-69
2023/11/12 14:32:32;;;;;;;8.53;6.37;;;;;;;7.46;100.00;99816.80;4921267;58;1137100;-70
2023/11/12 14:37:41;;;;;;;11.12;7.97;;;;;;;7.44;100.00;99820.85;4931947;57;1136897;-72
2023/11/12 14:42:46;;;;;;;86.23;20.70;;;;;;;7.40;100.00;99824.19;4957354;58;1138900;-71
2023/11/12 14:47:52;;;;;;;11.20;6.73;;;;;;;7.42;100.00;99829.34;5027135;57;1140843;-73
2023/11/12 14:52:58;;;;;;;16.13;7.80;;;;;;;7.42;100.00;99842.48;4929334;58;1138535;-72
2023/11/12 14:58:05;;;;;;;10.87;7.20;;;;;;;7.37;100.00;99832.30;4955129;57;1138576;-73
2023/11/12 15:03:10;;;;;;;7.33;6.00;;;;;;;7.33;100.00;99832.16;4973654;56;1138753;-71
2023/11/12 15:08:16;;;;;;;144.47;44.07;;;;;;;7.29;100.00;99834.69;5016300;57;1245738;-72
2023/11/12 15:13:21;;;;;;;20.67;8.00;;;;;;;7.31;100.00;99833.26;5010482;57;1143057;-74
2023/11/12 15:18:27;;;;;;;6.23;4.60;;;;;;;7.29;100.00;99837.79;5049514;57;1138656;-72
2023/11/12 15:23:32;;;;;;;5.97;4.50;;;;;;;7.24;100.00;99839.91;5031776;57;1136809;-73
2023/11/12 15:28:38;;;;;;;8.28;4.60;;;;;;;7.21;100.00;99844.92;5037277;56;1136617;-74
2023/11/12 15:33:44;;;;;;;3.42;3.05;;;;;;;7.16;100.00;99845.77;5101345;56;1136752;-74
2023/11/12 15:38:50;;;;;;;4.07;3.63;;;;;;;7.09;100.00;99846.31;4970268;55;1136637;-74
2023/11/12 15:43:55;;;;;;;4.60;3.50;;;;;;;7.01;100.00;99852.15;5016028;56;1136773;-73
2023/11/12 15:49:01;;;;;;;3.60;2.98;;;;;;;7.01;100.00;99857.41;5013033;56;1136791;-74
2023/11/12 15:54:07;;;;;;;7.45;4.17;;;;;;;7.00;100.00;99850.47;4984072;56;1136702;-75
2023/11/12 15:59:12;;;;;;;3.83;3.03;;;;;;;7.00;100.00;99851.31;4915769;57;1136767;-75
2023/11/12 16:04:18;;;;;;;5.10;3.67;;;;;;;6.99;100.00;99854.05;5076737;56;1136662;-74
2023/11/12 16:09:23;;;;;;;3.87;3.47;;;;;;;6.95;100.00;99863.94;4972411;57;1136844;-72
2023/11/12 16:14:30;;;;;;;8.33;3.90;;;;;;;6.95;100.00;99861.79;5023994;56;1136817;-75
2023/11/12 16:19:36;;;;;;;7.10;3.77;;;;;;;6.91;100.00;99862.48;4887199;58;1136716;-74
2023/11/12 16:24:41;;;;;;;5.83;4.23;;;;;;;6.90;100.00;99866.53;4979299;57;1136910;-73
2023/11/12 16:29:47;;;;;;;7.67;5.90;;;;;;;6.89;100.00;99867.48;5150770;55;1136975;-71
2023/11/12 16:34:53;;;;;;;12.43;5.10;;;;;;;6.93;100.00;99866.31;5172905;55;1137080;-71
2023/11/12 16:40:00;;;;;;;33.63;14.97;;;;;;;6.90;100.00;99854.70;5058408;56;1138866;-74
2023/11/12 16:45:06;;;;;;;14.87;7.00;;;;;;;6.88;100.00;99854.81;5049362;56;1140942;-71
2023/11/12 16:50:15;;;;;;;8.23;6.10;;;;;;;6.87;100.00;99859.73;5065157;56;1139236;-74
2023/11/12 16:55:20;;;;;;;10.07;4.43;;;;;;;6.86;100.00;99871.67;5125045;55;1136566;-70
2023/11/12 17:00:29;;;;;;;6.23;3.33;;;;;;;6.77;100.00;99874.95;5170781;55;1138679;-74
2023/11/12 17:05:39;;;;;;;5.83;4.23;;;;;;;6.72;100.00;99875.77;5092948;56;1136616;-73
2023/11/12 17:10:50;;;;;;;8.43;4.13;;;;;;;6.70;100.00;99878.50;5210857;55;1136308;-75
2023/11/12 17:15:58;;;;;;;6.53;4.40;;;;;;;6.67;100.00;99879.56;5091670;55;1134754;-76
2023/11/12 17:21:05;;;;;;;6.55;4.33;;;;;;;6.63;100.00;99889.92;5132211;55;1136675;-76
2023/11/12 17:26:11;;;;;;;12.43;7.53;;;;;;;6.62;100.00;99882.98;5086929;55;1136896;-76
2023/11/12 17:31:16;;;;;;;9.33;5.72;;;;;;;6.61;100.00;99891.81;4984574;56;1138910;-73
2023/11/12 17:36:22;;;;;;;20.55;11.18;;;;;;;6.59;100.00;99893.70;4989490;56;1137085;-71
2023/11/12 17:41:28;;;;;;;15.37;9.67;;;;;;;6.59;100.00;99891.08;4977258;56;1141053;-76
2023/11/12 17:46:33;;;;;;;7.77;5.43;;;;;;;6.57;100.00;99896.91;4945393;57;1139024;-71
2023/11/12 17:51:40;;;;;;;11.10;5.27;;;;;;;6.49;100.00;99900.56;4925982;58;1136906;-73
2023/11/12 17:56:46;;;;;;;7.97;4.07;;;;;;;6.44;100.00;99908.39;5019651;56;1138792;-69
2023/11/12 18:01:52;;;;;;;6.17;4.17;;;;;;;6.39;100.00;99917.09;4987994;56;1136655;-73
2023/11/12 18:06:58;;;;;;;8.20;4.83;;;;;;;6.37;100.00;99923.76;5023295;56;1136548;-72
2023/11/12 18:12:03;;;;;;;5.63;4.30;;;;;;;6.34;100.00;99922.66;5050783;55;1136901;-71
2023/11/12 18:17:09;;;;;;;7.13;4.93;;;;;;;6.33;100.00;99929.69;4827065;57;1136877;-73
2023/11/12 18:22:14;;;;;;;15.40;7.60;;;;;;;6.35;100.00;99923.86;4853689;58;1136865;-70
2023/11/12 18:27:23;;;;;;;11.70;4.57;;;;;;;6.35;100.00;99930.42;4957401;57;1138799;-71
2023/11/12 18:32:28;;;;;;;8.50;5.47;;;;;;;6.33;100.00;99926.22;4959352;57;1138846;-71
2023/11/12 18:37:34;;;;;;;10.20;5.85;;;;;;;6.31;100.00;99929.42;5114149;55;1136732;-72
2023/11/12 18:42:40;;;;;;;17.10;8.23;;;;;;;6.27;100.00;99934.52;5150881;55;1138785;-72
2023/11/12 18:47:46;;;;;;;14.37;9.00;;;;;;;6.27;100.00;99940.61;5075676;55;1138666;-74
2023/11/12 18:52:53;;;;;;;9.80;6.43;;;;;;;6.24;100.00;99940.00;5071441;55;1138617;-72
2023/11/12 18:58:00;;;;;;;10.53;6.07;;;;;;;6.22;100.00;99935.33;5132791;55;1136647;-72
2023/11/12 19:03:07;;;;;;;10.33;7.03;;;;;;;6.19;100.00;99942.09;5081904;56;1138737;-72
2023/11/12 19:08:16;;;;;;;13.77;7.83;;;;;;;6.09;100.00;99934.02;5122048;56;1138810;-71
2023/11/12 19:13:26;;;;;;;12.20;7.23;;;;;;;6.05;100.00;99937.79;5118473;55;1138757;-75
2023/11/12 19:18:34;;;;;;;19.93;10.33;;;;;;;5.99;100.00;99943.45;5140723;55;1138608;-74
2023/11/12 19:23:40;;;;;;;21.33;9.35;;;;;;;5.98;100.00;99944.38;5149120;55;1140865;-71
2023/11/12 19:28:46;;;;;;;17.20;9.70;;;;;;;5.98;100.00;99955.73;5123570;55;1138677;-70
2023/11/12 19:33:52;;;;;;;166.23;103.13;;;;;;;5.97;100.00;99955.36;5142518;55;1138957;-74
2023/11/12 19:38:57;;;;;;;101.93;59.33;;;;;;;5.93;100.00;99956.53;5130903;55;1145029;-74
2023/11/12 19:44:03;;;;;;;61.00;34.48;;;;;;;5.95;100.00;99960.37;5130418;55;1142646;-72
2023/11/12 19:49:10;;;;;;;38.83;16.67;;;;;;;5.93;100.00;99963.09;5112881;55;1141113;-74
2023/11/12 19:54:18;;;;;;;17.50;10.87;;;;;;;5.96;100.00;99967.27;5112507;56;1140941;-74
2023/11/12 19:59:31;;;;;;;17.20;10.50;;;;;;;5.96;100.00;99962.86;5030029;55;1140622;-74
2023/11/12 20:04:30;;;;;;;17.33;8.87;;;;;;;5.94;100.00;99966.56;5082443;55;1140712;-75
2023/11/12 20:09:36;;;;;;;21.90;10.10;;;;;;;5.90;100.00;99965.08;5161213;55;1138395;-71
2023/11/12 20:14:42;;;;;;;18.55;10.20;;;;;;;5.89;100.00;99964.70;5054410;56;1144569;-75
2023/11/12 20:19:48;;;;;;;15.88;9.25;;;;;;;5.93;100.00;99974.91;5030152;56;1140805;-75
2023/11/12 20:24:53;;;;;;;15.17;9.73;;;;;;;5.97;100.00;99964.55;5144484;55;1138602;-71
2023/11/12 20:29:59;;;;;;;13.70;8.40;;;;;;;6.05;100.00;99969.77;5142081;55;1138770;-71
2023/11/12 20:35:09;;;;;;;13.80;9.53;;;;;;;6.05;100.00;99975.02;5139541;55;1138844;-73
2023/11/12 20:40:13;;;;;;;15.27;8.63;;;;;;;6.03;100.00;99974.27;5159441;55;1138747;-74
2023/11/12 20:45:19;;;;;;;11.53;7.63;;;;;;;6.06;100.00;99971.45;5119020;55;1138672;-72
2023/11/12 20:50:24;;;;;;;9.80;6.40;;;;;;;6.10;100.00;99978.17;5120489;55;1138727;-75
2023/11/12 20:55:30;;;;;;;10.33;6.23;;;;;;;6.12;100.00;99977.57;5088603;55;1136709;-72
2023/11/12 21:00:37;;;;;;;11.60;6.70;;;;;;;6.08;100.00;99979.59;5084896;55;1138697;-70
2023/11/12 21:05:44;;;;;;;12.75;7.30;;;;;;;6.06;100.00;99978.01;5088461;55;1138957;-72
2023/11/12 21:10:49;;;;;;;13.32;8.20;;;;;;;6.03;100.00;99976.42;5111419;56;1138733;-68
2023/11/12 21:15:56;;;;;;;14.47;7.60;;;;;;;5.97;100.00;99983.39;5203671;56;1138870;-68
2023/11/12 21:21:03;;;;;;;16.77;7.87;;;;;;;5.93;100.00;99993.27;5183585;56;1138711;-71
2023/11/12 21:26:14;;;;;;;9.17;5.50;;;;;;;5.93;100.00;99986.71;5106467;56;1138781;-68
2023/11/12 21:31:22;;;;;;;8.40;5.70;;;;;;;5.96;100.00;99983.86;5127319;56;1136704;-72
2023/11/12 21:36:27;;;;;;;35.37;10.10;;;;;;;5.99;100.00;99977.56;5133680;56;1136992;-73
2023/11/12 21:41:33;;;;;;;35.24;14.64;;;;;;;6.03;100.00;99973.80;5161137;55;1141033;-74
2023/11/12 21:46:39;;;;;;;16.40;9.00;;;;;;;6.09;100.00;99971.24;5084204;56;1141073;-73
2023/11/12 21:51:44;;;;;;;40.12;13.22;;;;;;;6.13;100.00;99966.12;5144726;55;1138699;-71
2023/11/12 21:56:51;;;;;;;15.15;7.62;;;;;;;6.16;100.00;99983.83;5189281;55;1140758;-71
2023/11/12 22:01:56;;;;;;;11.63;6.37;;;;;;;6.18;100.00;99984.58;5211341;55;1138746;-73
2023/11/12 22:07:02;;;;;;;15.03;8.67;;;;;;;6.21;100.00;99976.50;5213179;55;1139044;-72
2023/11/12 22:12:09;;;;;;;17.47;9.57;;;;;;;6.26;100.00;99976.19;5110417;56;1138794;-70
2023/11/12 22:17:14;;;;;;;26.67;10.90;;;;;;;6.25;100.00;99974.03;5131298;56;1138673;-73
2023/11/12 22:22:20;;;;;;;20.73;10.37;;;;;;;6.23;100.00;99988.21;5043697;56;1140723;-72
2023/11/12 22:27:25;;;;;;;18.27;10.10;;;;;;;6.20;100.00;99982.69;5188733;55;1138722;-71
2023/11/12 22:32:32;;;;;;;14.58;8.28;;;;;;;6.14;100.00;99985.72;5184737;55;1140947;-72
2023/11/12 22:37:39;;;;;;;12.80;8.17;;;;;;;6.09;100.00;99989.15;5148483;55;1145719;-74
2023/11/12 22:42:44;;;;;;;16.02;9.18;;;;;;;6.14;100.00;99983.56;5098198;56;1138827;-71
2023/11/12 22:47:50;;;;;;;15.13;9.13;;;;;;;6.16;100.00;99993.02;5120054;56;1138939;-71
2023/11/12 22:52:55;;;;;;;13.33;9.33;;;;;;;6.16;100.00;99991.71;5204684;56;1138660;-74
2023/11/12 22:58:01;;;;;;;15.17;8.93;;;;;;;6.14;100.00;99991.44;5184213;55;1138948;-72
2023/11/12 23:03:07;;;;;;;14.63;10.60;;;;;;;6.10;100.00;99996.55;5171864;56;1138849;-70
2023/11/12 23:08:13;;;;;;;12.73;9.27;;;;;;;6.05;100.00;100002.11;5161594;55;1141089;-70